createdAt,value
2023-02-19T00:00:52.696Z,9.70
2023-02-19T00:03:24.680Z,8.80
2023-02-19T00:05:58.567Z,9.70
2023-02-19T00:08:32.105Z,8.30
2023-02-19T00:11:09.439Z,7.90
2023-02-19T00:13:48.124Z,7.40
2023-02-19T00:16:26.989Z,7.30
2023-02-19T00:19:02.632Z,7.00
2023-02-19T00:21:34.997Z,6.30
2023-02-19T00:24:12.524Z,6.00
2023-02-19T00:26:50.900Z,8.10
2023-02-19T00:29:25.588Z,7.10
2023-02-19T00:31:57.472Z,6.90
2023-02-19T00:34:31.600Z,5.20
2023-02-19T00:37:07.756Z,6.30
2023-02-19T00:39:45.470Z,4.90
2023-02-19T00:42:18.560Z,4.20
2023-02-19T00:44:52.009Z,5.10
2023-02-19T00:47:25.594Z,4.40
2023-02-19T00:49:57.341Z,3.70
2023-02-19T00:52:29.582Z,4.90
2023-02-19T00:55:01.857Z,3.60
2023-02-19T00:57:33.529Z,3.80
2023-02-19T01:00:06.928Z,7.20
2023-02-19T01:02:38.564Z,4.90
2023-02-19T01:05:11.512Z,3.50
2023-02-19T01:07:43.222Z,3.30
2023-02-19T01:10:14.874Z,7.20
2023-02-19T01:12:46.750Z,2.70
2023-02-19T01:15:18.795Z,3.20
2023-02-19T01:17:50.538Z,3.30
2023-02-19T01:20:22.170Z,3.00
2023-02-19T01:22:55.686Z,2.70
2023-02-19T01:25:27.635Z,2.70
2023-02-19T01:28:02.296Z,2.20
2023-02-19T01:30:39.660Z,3.00
2023-02-19T01:33:11.939Z,3.00
2023-02-19T01:35:46.582Z,2.30
2023-02-19T01:38:20.436Z,2.60
2023-02-19T01:41:00.002Z,4.70
2023-02-19T01:43:33.436Z,2.70
2023-02-19T01:46:05.236Z,3.00
2023-02-19T01:48:39.148Z,3.20
2023-02-19T01:51:15.848Z,2.30
2023-02-19T01:53:51.623Z,3.30
2023-02-19T01:56:27.993Z,3.30
2023-02-19T01:59:00.436Z,2.70
2023-02-19T02:01:32.551Z,2.40
2023-02-19T02:04:05.686Z,2.50
2023-02-19T02:06:42.492Z,4.60
2023-02-19T02:09:31.992Z,3.60
2023-02-19T02:12:03.720Z,3.80
2023-02-19T02:14:39.308Z,5.90
2023-02-19T02:17:18.529Z,6.60
2023-02-19T02:20:19.576Z,3.30
2023-02-19T02:22:59.305Z,5.50
2023-02-19T02:26:02.963Z,3.90
2023-02-19T02:29:11.082Z,4.80
2023-02-19T02:31:45.855Z,4.80
2023-02-19T02:36:56.016Z,2.70
2023-02-19T02:39:29.629Z,3.50
2023-02-19T02:42:19.730Z,3.00
2023-02-19T02:45:05.221Z,3.20
2023-02-19T02:47:45.190Z,2.50
2023-02-19T02:50:21.578Z,3.10
2023-02-19T02:53:14.476Z,3.70
2023-02-19T02:55:53.512Z,5.20
2023-02-19T02:58:26.838Z,3.60
2023-02-19T03:01:20.299Z,3.00
2023-02-19T03:03:56.952Z,3.70
2023-02-19T03:06:31.407Z,2.70
2023-02-19T03:09:09.588Z,3.10
2023-02-19T03:12:02.764Z,2.10
2023-02-19T03:14:58.441Z,3.70
2023-02-19T03:17:51.060Z,3.00
2023-02-19T03:20:28.873Z,4.40
2023-02-19T03:23:02.648Z,3.10
2023-02-19T03:25:54.002Z,3.40
2023-02-19T03:28:43.173Z,3.00
2023-02-19T03:31:20.280Z,3.80
2023-02-19T03:33:58.688Z,5.70
2023-02-19T03:36:37.200Z,4.00
2023-02-19T03:39:13.714Z,3.50
2023-02-19T03:41:54.332Z,3.00
2023-02-19T03:44:34.886Z,7.90
2023-02-19T03:47:13.133Z,4.20
2023-02-19T03:49:50.293Z,4.20
2023-02-19T03:52:29.068Z,4.10
2023-02-19T03:55:05.196Z,3.90
2023-02-19T03:57:50.306Z,4.70
2023-02-19T04:02:59.920Z,4.90
2023-02-19T04:05:35.275Z,4.40
2023-02-19T04:08:12.987Z,4.70
2023-02-19T04:10:49.200Z,4.00
2023-02-19T04:13:27.616Z,3.90
2023-02-19T04:16:07.141Z,3.90
2023-02-19T04:18:43.352Z,3.40
2023-02-19T04:21:16.636Z,3.30
2023-02-19T04:23:52.798Z,3.50
2023-02-19T04:26:26.425Z,3.60
2023-02-19T04:36:22.379Z,3.50
2023-02-19T04:38:55.723Z,3.80
2023-02-19T04:41:28.318Z,3.30
2023-02-19T04:43:59.848Z,3.50
2023-02-19T04:46:31.452Z,3.40
2023-02-19T04:49:04.745Z,3.20
2023-02-19T04:51:36.600Z,3.50
2023-02-19T04:54:08.671Z,3.60
2023-02-19T04:56:41.087Z,3.50
2023-02-19T04:59:13.325Z,3.60
2023-02-19T05:01:46.854Z,3.40
2023-02-19T05:04:19.352Z,3.10
2023-02-19T05:06:51.642Z,3.60
2023-02-19T05:09:24.777Z,3.30
2023-02-19T05:11:58.304Z,3.60
2023-02-19T05:14:32.989Z,3.50
2023-02-19T05:17:04.782Z,3.30
2023-02-19T05:19:37.986Z,3.50
2023-02-19T05:22:09.734Z,3.80
2023-02-19T05:24:41.458Z,3.40
2023-02-19T05:27:13.395Z,3.70
2023-02-19T05:29:45.368Z,4.30
2023-02-19T05:32:17.448Z,3.60
2023-02-19T05:34:51.620Z,3.30
2023-02-19T05:37:23.594Z,3.40
2023-02-19T05:39:55.475Z,3.00
2023-02-19T05:42:29.565Z,4.00
2023-02-19T05:45:03.741Z,3.70
2023-02-19T05:47:35.670Z,8.70
2023-02-19T05:50:08.157Z,7.00
2023-02-19T05:52:40.124Z,5.10
2023-02-19T05:55:12.488Z,6.30
2023-02-19T05:57:46.148Z,6.40
2023-02-19T06:00:20.748Z,5.20
2023-02-19T06:02:55.227Z,5.60
2023-02-19T06:05:28.192Z,6.60
2023-02-19T06:08:00.042Z,5.10
2023-02-19T06:10:31.632Z,5.10
2023-02-19T06:13:05.152Z,6.80
2023-02-19T06:15:37.626Z,5.30
2023-02-19T06:18:11.596Z,5.90
2023-02-19T06:20:46.361Z,4.20
2023-02-19T06:23:18.076Z,4.30
2023-02-19T06:25:52.499Z,6.30
2023-02-19T06:28:24.493Z,5.50
2023-02-19T06:31:03.939Z,4.40
2023-02-19T06:33:36.271Z,4.00
2023-02-19T06:36:09.446Z,4.50
2023-02-19T06:38:44.960Z,4.70
2023-02-19T06:41:22.448Z,4.70
2023-02-19T06:43:56.061Z,4.40
2023-02-19T06:46:30.742Z,4.90
2023-02-19T06:49:02.553Z,4.90
2023-02-19T06:51:34.962Z,5.50
2023-02-19T06:54:26.458Z,5.50
2023-02-19T06:56:59.984Z,6.00
2023-02-19T06:59:33.388Z,5.90
2023-02-19T07:02:05.280Z,5.50
2023-02-19T07:04:37.395Z,5.30
2023-02-19T07:07:15.810Z,5.30
2023-02-19T07:09:47.799Z,5.40
2023-02-19T07:12:19.785Z,5.60
2023-02-19T07:14:52.829Z,5.20
2023-02-19T07:17:24.745Z,5.00
2023-02-19T07:19:56.345Z,5.00
2023-02-19T07:22:29.065Z,5.30
2023-02-19T07:25:01.853Z,5.60
2023-02-19T07:27:35.867Z,4.30
2023-02-19T07:30:09.065Z,5.90
2023-02-19T07:32:45.922Z,8.10
2023-02-19T07:35:18.395Z,7.00
2023-02-19T07:37:50.222Z,8.10
2023-02-19T07:40:22.543Z,7.00
2023-02-19T07:42:57.938Z,7.40
2023-02-19T07:45:30.430Z,7.30
2023-02-19T07:48:02.659Z,7.20
2023-02-19T07:50:39.086Z,6.80
2023-02-19T07:53:12.087Z,6.90
2023-02-19T07:55:44.194Z,10.50
2023-02-19T07:58:16.065Z,7.20
2023-02-19T08:00:48.142Z,6.60
2023-02-19T08:03:20.742Z,14.20
2023-02-19T08:05:54.178Z,12.10
2023-02-19T08:08:29.397Z,13.80
2023-02-19T08:11:24.769Z,11.80
2023-02-19T08:13:56.698Z,14.90
2023-02-19T08:16:42.124Z,11.80
2023-02-19T08:19:14.986Z,11.00
2023-02-19T08:21:48.546Z,11.00
2023-02-19T08:24:20.350Z,9.50
2023-02-19T08:26:52.123Z,8.90
2023-02-19T08:29:23.785Z,6.90
2023-02-19T08:31:55.531Z,7.70
2023-02-19T08:34:27.581Z,6.30
2023-02-19T08:37:02.889Z,6.90
2023-02-19T08:39:36.280Z,7.30
2023-02-19T08:42:12.543Z,8.00
2023-02-19T08:44:46.067Z,6.70
2023-02-19T08:47:18.429Z,9.20
2023-02-19T08:49:50.582Z,14.40
2023-02-19T08:52:22.740Z,14.00
2023-02-19T08:54:54.345Z,15.30
2023-02-19T08:57:26.839Z,9.80
2023-02-19T08:59:58.663Z,10.10
2023-02-19T09:02:31.454Z,9.50
2023-02-19T09:05:05.896Z,8.90
2023-02-19T09:07:37.760Z,9.50
2023-02-19T09:10:12.003Z,6.30
2023-02-19T09:12:44.428Z,4.80
2023-02-19T09:15:16.606Z,5.20
2023-02-19T09:17:52.388Z,5.20
2023-02-19T09:20:24.635Z,4.50
2023-02-19T09:23:00.463Z,4.50
2023-02-19T09:25:34.236Z,4.70
2023-02-19T09:28:06.636Z,6.80
2023-02-19T09:30:38.583Z,5.30
2023-02-19T09:33:11.580Z,4.40
2023-02-19T09:35:43.738Z,6.10
2023-02-19T09:38:16.091Z,5.90
2023-02-19T09:40:48.084Z,5.20
2023-02-19T09:43:24.116Z,5.20
2023-02-19T09:46:03.306Z,4.50
2023-02-19T09:48:35.675Z,8.50
2023-02-19T09:51:10.484Z,5.30
2023-02-19T09:53:48.269Z,5.20
2023-02-19T09:56:25.003Z,4.70
2023-02-19T09:59:01.283Z,4.90
2023-02-19T10:01:48.914Z,4.80
2023-02-19T10:04:27.400Z,4.60
2023-02-19T10:07:04.630Z,4.20
2023-02-19T10:09:37.887Z,4.00
2023-02-19T10:12:26.603Z,4.40
2023-02-19T10:15:04.132Z,4.20
2023-02-19T10:17:38.116Z,4.60
2023-02-19T10:20:19.247Z,4.10
2023-02-19T10:22:59.899Z,4.00
2023-02-19T10:25:36.792Z,4.20
2023-02-19T10:28:16.450Z,3.90
2023-02-19T10:30:58.040Z,4.50
2023-02-19T10:33:36.609Z,4.50
2023-02-19T10:36:31.781Z,4.80
2023-02-19T10:39:12.351Z,4.70
2023-02-19T10:41:52.542Z,3.80
2023-02-19T10:44:40.897Z,5.70
2023-02-19T10:47:25.408Z,5.20
2023-02-19T10:50:03.313Z,5.20
2023-02-19T10:52:46.148Z,4.70
2023-02-19T10:55:30.840Z,5.20
2023-02-19T10:58:26.487Z,4.40
2023-02-19T11:01:17.333Z,4.60
2023-02-19T11:03:50.437Z,4.70
2023-02-19T11:06:30.316Z,5.60
2023-02-19T11:09:04.229Z,7.20
2023-02-19T11:11:43.060Z,4.60
2023-02-19T11:14:22.351Z,5.00
2023-02-19T11:17:13.686Z,5.60
2023-02-19T11:19:52.982Z,5.60
2023-02-19T11:22:34.939Z,8.00
2023-02-19T11:25:09.722Z,4.40
2023-02-19T11:30:40.584Z,7.70
2023-02-19T11:33:27.636Z,6.00
2023-02-19T11:36:20.145Z,6.40
2023-02-19T11:39:00.215Z,4.70
2023-02-19T11:41:52.856Z,4.70
2023-02-19T11:44:39.794Z,4.30
2023-02-19T11:47:45.819Z,4.50
2023-02-19T11:50:26.798Z,4.70
2023-02-19T11:53:16.182Z,4.30
2023-02-19T11:56:00.735Z,4.30
2023-02-19T11:59:00.652Z,4.00
2023-02-19T12:01:48.800Z,3.50
2023-02-19T12:05:15.433Z,4.60
2023-02-19T12:08:18.976Z,4.20
2023-02-19T12:11:07.473Z,4.40
2023-02-19T12:13:55.947Z,4.80
2023-02-19T12:16:50.522Z,4.20
2023-02-19T12:19:40.641Z,3.70
2023-02-19T12:22:31.560Z,3.10
2023-02-19T12:25:37.829Z,4.40
2023-02-19T12:28:27.394Z,3.40
2023-02-19T12:34:51.332Z,4.20
2023-02-19T12:37:40.400Z,3.40
2023-02-19T12:40:30.355Z,4.00
2023-02-19T12:43:16.050Z,3.10
2023-02-19T12:45:58.664Z,2.70
2023-02-19T12:48:38.736Z,2.80
2023-02-19T12:51:17.797Z,2.70
2023-02-19T12:53:58.449Z,2.60
2023-02-19T12:56:38.569Z,2.20
2023-02-19T12:59:17.045Z,3.10
2023-02-19T13:01:55.464Z,3.30
2023-02-19T13:04:36.639Z,2.70
2023-02-19T13:07:13.432Z,3.00
2023-02-19T13:09:51.036Z,3.90
2023-02-19T13:12:27.555Z,2.70
2023-02-19T13:15:06.134Z,2.90
2023-02-19T13:17:45.033Z,3.90
2023-02-19T13:20:25.240Z,3.60
2023-02-19T13:23:26.663Z,4.00
2023-02-19T13:26:25.040Z,3.50
2023-02-19T13:29:10.925Z,3.10
2023-02-19T13:32:17.856Z,2.40
2023-02-19T13:35:01.920Z,3.10
2023-02-19T13:37:39.856Z,3.90
2023-02-19T13:40:24.613Z,3.20
2023-02-19T13:43:00.096Z,4.50
2023-02-19T13:45:41.206Z,4.90
2023-02-19T13:48:31.148Z,4.30
2023-02-19T13:51:37.949Z,4.30
2023-02-19T13:54:26.206Z,2.90
2023-02-19T13:57:40.257Z,5.60
2023-02-19T14:00:54.839Z,4.20
2023-02-19T14:03:43.272Z,4.00
2023-02-19T14:06:16.533Z,4.70
2023-02-19T14:08:58.450Z,5.40
2023-02-19T14:12:07.588Z,3.30
2023-02-19T14:14:42.764Z,2.80
2023-02-19T14:17:42.717Z,3.90
2023-02-19T14:20:46.337Z,4.50
2023-02-19T14:23:28.305Z,4.90
2023-02-19T14:26:05.795Z,4.50
2023-02-19T14:28:43.927Z,3.60
2023-02-19T14:31:25.305Z,5.90
2023-02-19T14:34:03.667Z,4.80
2023-02-19T14:36:50.016Z,5.10
2023-02-19T14:39:25.737Z,5.50
2023-02-19T14:42:03.441Z,3.40
2023-02-19T14:44:49.753Z,4.80
2023-02-19T14:47:25.552Z,3.40
2023-02-19T14:50:01.707Z,6.30
2023-02-19T14:52:45.127Z,9.00
2023-02-19T14:55:27.273Z,7.40
2023-02-19T14:58:03.240Z,7.60
2023-02-19T15:00:39.576Z,5.20
2023-02-19T15:03:31.397Z,4.00
2023-02-19T15:06:20.663Z,4.90
2023-02-19T15:08:59.285Z,3.50
2023-02-19T15:11:38.257Z,4.30
2023-02-19T15:14:21.335Z,4.00
2023-02-19T15:16:58.670Z,3.60
2023-02-19T15:19:36.014Z,3.80
2023-02-19T15:22:10.095Z,4.30
2023-02-19T15:24:51.095Z,3.50
2023-02-19T15:27:27.136Z,3.20
2023-02-19T15:30:02.196Z,6.00
2023-02-19T15:32:38.412Z,4.40
2023-02-19T15:35:27.968Z,5.00
2023-02-19T15:38:01.211Z,9.00
2023-02-19T15:40:35.889Z,6.40
2023-02-19T15:43:23.815Z,6.00
2023-02-19T15:46:02.549Z,8.10
2023-02-19T15:48:43.742Z,7.40
2023-02-19T15:51:21.698Z,9.10
2023-02-19T15:54:01.128Z,5.80
2023-02-19T15:56:52.347Z,8.60
2023-02-19T15:59:32.850Z,8.20
2023-02-19T16:02:06.116Z,7.00
2023-02-19T16:04:40.713Z,5.90
2023-02-19T16:07:31.120Z,5.30
2023-02-19T16:10:24.795Z,7.50
2023-02-19T16:13:04.424Z,9.00
2023-02-19T16:15:38.512Z,8.00
2023-02-19T16:18:18.664Z,6.60
2023-02-19T16:20:58.015Z,8.20
2023-02-19T16:23:33.595Z,6.80
2023-02-19T16:26:09.871Z,8.00
2023-02-19T16:28:45.598Z,6.60
2023-02-19T16:31:27.453Z,6.10
2023-02-19T16:34:29.028Z,5.70
2023-02-19T16:37:02.760Z,4.60
2023-02-19T16:39:36.633Z,5.00
2023-02-19T16:42:30.750Z,5.00
2023-02-19T16:45:04.702Z,6.60
2023-02-19T16:47:45.788Z,8.70
2023-02-19T16:50:22.266Z,9.30
2023-02-19T16:53:01.415Z,10.30
2023-02-19T16:55:38.832Z,10.60
2023-02-19T16:58:14.406Z,8.20
2023-02-19T17:00:48.539Z,8.40
2023-02-19T17:03:25.331Z,9.30
2023-02-19T17:05:59.761Z,7.40
2023-02-19T17:08:40.291Z,8.10
2023-02-19T17:11:17.796Z,8.70
2023-02-19T17:13:51.476Z,8.20
2023-02-19T17:16:28.141Z,8.80
2023-02-19T17:19:06.519Z,9.30
2023-02-19T17:21:40.342Z,9.30
2023-02-19T17:24:18.893Z,8.20
2023-02-19T17:26:52.824Z,6.10
2023-02-19T17:29:34.883Z,4.90
2023-02-19T17:32:09.438Z,4.90
2023-02-19T17:34:44.767Z,4.90
2023-02-19T17:37:23.296Z,6.10
2023-02-19T17:39:57.643Z,6.20
2023-02-19T17:42:32.200Z,7.10
2023-02-19T17:45:07.645Z,9.00
2023-02-19T17:47:45.646Z,7.90
2023-02-19T17:50:31.702Z,7.10
2023-02-19T17:53:05.982Z,6.30
2023-02-19T17:55:40.949Z,6.90
2023-02-19T17:58:20.740Z,5.80
2023-02-19T18:00:54.392Z,5.80
2023-02-19T18:03:27.691Z,6.40
2023-02-19T18:06:07.664Z,5.20
2023-02-19T18:08:43.058Z,6.40
2023-02-19T18:11:16.505Z,8.00
2023-02-19T18:13:57.737Z,7.10
2023-02-19T18:16:34.137Z,7.90
2023-02-19T18:19:15.420Z,6.60
2023-02-19T18:21:55.303Z,7.00
2023-02-19T18:24:28.452Z,7.60
2023-02-19T18:27:03.453Z,8.70
2023-02-19T18:29:40.614Z,8.30
2023-02-19T18:32:16.360Z,9.00
2023-02-19T18:34:55.271Z,9.90
2023-02-19T18:37:30.961Z,12.90
2023-02-19T18:40:20.284Z,8.40
2023-02-19T18:42:54.639Z,14.30
2023-02-19T18:45:30.039Z,13.20
2023-02-19T18:48:04.505Z,9.20
2023-02-19T18:50:38.954Z,7.50
2023-02-19T18:53:13.973Z,7.80
2023-02-19T18:55:48.100Z,5.00
2023-02-19T18:58:27.569Z,6.30
2023-02-19T19:01:02.117Z,7.10
2023-02-19T19:03:39.684Z,5.90
2023-02-19T19:06:18.104Z,5.80
2023-02-19T19:08:55.957Z,7.20
2023-02-19T19:11:36.798Z,5.90
2023-02-19T19:14:18.655Z,7.80
2023-02-19T19:16:59.410Z,5.40
2023-02-19T19:19:35.616Z,6.60
2023-02-19T19:22:09.281Z,5.90
2023-02-19T19:24:42.322Z,4.70
2023-02-19T19:27:18.240Z,6.00
2023-02-19T19:29:51.454Z,4.80
2023-02-19T19:32:26.945Z,6.40
2023-02-19T19:35:01.507Z,5.60
2023-02-19T19:37:38.321Z,5.80
2023-02-19T19:40:18.272Z,5.90
2023-02-19T19:42:55.941Z,6.00
2023-02-19T19:45:34.046Z,7.00
2023-02-19T19:48:10.896Z,8.20
2023-02-19T19:50:45.838Z,9.60
2023-02-19T19:53:26.747Z,11.80
2023-02-19T19:56:02.000Z,9.30
2023-02-19T19:58:37.605Z,8.80
2023-02-19T20:01:12.312Z,8.40
2023-02-19T20:03:47.866Z,8.60
2023-02-19T20:06:29.511Z,6.40
2023-02-19T20:09:04.965Z,12.10
2023-02-19T20:11:49.500Z,8.20
2023-02-19T20:14:33.121Z,6.10
2023-02-19T20:17:08.944Z,6.60
2023-02-19T20:19:45.700Z,6.90
2023-02-19T20:22:24.158Z,7.70
2023-02-19T20:25:00.345Z,7.30
2023-02-19T20:27:36.517Z,6.30
2023-02-19T20:30:13.687Z,6.20
2023-02-19T20:33:08.216Z,5.60
2023-02-19T20:35:41.596Z,5.90
2023-02-19T20:38:19.725Z,6.40
2023-02-19T20:40:53.232Z,5.60
2023-02-19T20:43:28.720Z,7.30
2023-02-19T20:46:10.207Z,9.60
2023-02-19T20:48:44.455Z,6.50
2023-02-19T20:51:18.159Z,6.70
2023-02-19T20:53:53.499Z,7.20
2023-02-19T20:56:28.934Z,5.20
2023-02-19T20:59:07.332Z,5.30
2023-02-19T21:01:40.560Z,4.90
2023-02-19T21:04:19.057Z,4.90
2023-02-19T21:06:55.477Z,5.10
2023-02-19T21:09:35.573Z,6.70
2023-02-19T21:12:12.823Z,6.10
2023-02-19T21:14:50.503Z,5.30
2023-02-19T21:17:25.567Z,5.50
2023-02-19T21:19:58.134Z,4.80
2023-02-19T21:22:33.080Z,5.20
2023-02-19T21:25:14.028Z,5.30
2023-02-19T21:27:47.199Z,5.30
2023-02-19T21:30:30.123Z,4.70
2023-02-19T21:33:02.577Z,4.70
2023-02-19T21:35:35.133Z,4.40
2023-02-19T21:38:07.408Z,4.20
2023-02-19T21:40:43.500Z,4.30
2023-02-19T21:43:16.380Z,4.30
2023-02-19T21:45:49.888Z,4.20
2023-02-19T21:48:23.623Z,9.20
2023-02-19T21:50:55.801Z,6.40
2023-02-19T21:53:32.329Z,6.70
2023-02-19T21:56:04.246Z,4.80
2023-02-19T21:58:38.083Z,4.20
2023-02-19T22:01:10.569Z,5.60
2023-02-19T22:03:42.504Z,5.30
2023-02-19T22:06:14.488Z,4.90
2023-02-19T22:08:46.557Z,4.40
2023-02-19T22:11:18.812Z,4.40
2023-02-19T22:13:50.957Z,3.50
2023-02-19T22:16:23.037Z,3.80
2023-02-19T22:18:56.953Z,3.80
2023-02-19T22:21:32.829Z,3.60
2023-02-19T22:24:05.576Z,5.10
2023-02-19T22:26:39.560Z,5.20
2023-02-19T22:29:14.800Z,3.90
2023-02-19T22:31:46.946Z,3.80
2023-02-19T22:34:18.881Z,3.50
2023-02-19T22:36:50.779Z,3.60
2023-02-19T22:39:24.981Z,3.30
2023-02-19T22:41:56.856Z,3.10
2023-02-19T22:44:31.048Z,3.30
2023-02-19T22:47:04.136Z,3.50
2023-02-19T22:49:39.072Z,3.30
2023-02-19T22:52:12.287Z,3.20
2023-02-19T22:54:45.405Z,2.90
2023-02-19T22:57:17.280Z,2.70
2023-02-19T22:59:49.801Z,2.90
2023-02-19T23:02:21.521Z,3.50
2023-02-19T23:04:54.295Z,3.60
2023-02-19T23:07:26.263Z,3.70
2023-02-19T23:09:57.940Z,3.40
2023-02-19T23:12:29.886Z,3.10
2023-02-19T23:15:01.810Z,4.10
2023-02-19T23:17:34.729Z,3.40
2023-02-19T23:20:07.578Z,3.00
2023-02-19T23:22:40.696Z,3.10
2023-02-19T23:25:12.636Z,3.50
2023-02-19T23:27:45.079Z,3.00
2023-02-19T23:30:18.799Z,3.00
2023-02-19T23:32:50.830Z,2.80
2023-02-19T23:35:23.926Z,2.80
2023-02-19T23:37:56.745Z,2.50
2023-02-19T23:40:29.113Z,2.50
2023-02-19T23:43:01.110Z,3.20
2023-02-19T23:45:33.016Z,3.00
2023-02-19T23:48:06.456Z,2.60
2023-02-19T23:50:39.618Z,2.70
2023-02-19T23:53:11.711Z,2.70
2023-02-19T23:55:43.506Z,3.00
2023-02-19T23:58:16.091Z,3.20
